Time;durP1;ratioP1;P1;durP2;ratioP2;P2;SDS_P1;SDS_P2;PMS_P1;PMS_P2;Temp;Humidity;BMP_temperature;BMP_pressure;BME280_temperature;BME280_humidity;BME280_pressure;Samples;Min_cycle;Max_cycle;Signal;HPM_P1;HPM_P2
2024/03/19 00:01:24;;;;;;;;;;;7.00;99.90;;;5.97;100.00;98077.06;4965687;28;1735;-69
2024/03/19 00:03:50;;;;;;;;;;;6.90;99.90;;;6.01;100.00;98071.00;4982183;28;1899;-69
2024/03/19 00:06:16;;;;;;;;;;;7.00;99.90;;;6.13;100.00;98076.81;4979747;28;1571;-69
2024/03/19 00:08:42;;;;;;;;;;;7.10;99.90;;;6.05;100.00;98070.06;4993034;28;1656;-69
2024/03/19 00:11:07;;;;;;;;;;;7.10;99.90;;;6.07;100.00;98076.06;4979558;28;1768;-69
2024/03/19 00:13:33;;;;;;;;;;;7.00;99.90;;;6.21;100.00;98078.41;4980972;28;1841;-69
2024/03/19 00:15:59;;;;;;;;;;;7.10;99.90;;;6.16;100.00;98074.19;4964536;28;1537;-68
2024/03/19 00:18:25;;;;;;;;;;;7.10;99.90;;;6.03;100.00;98078.72;4981561;28;2018;-69
2024/03/19 00:20:51;;;;;;;;;;;7.00;99.90;;;6.02;100.00;98083.03;4996643;28;1503;-69
2024/03/19 00:23:17;;;;;;;;;;;6.80;99.90;;;5.91;100.00;98086.59;4979332;28;1470;-69
2024/03/19 00:25:43;;;;;;;;;;;6.80;99.90;;;5.83;100.00;98087.56;4976569;28;1517;-69
2024/03/19 00:28:09;;;;;;;;;;;6.80;99.90;;;5.92;100.00;98093.47;4995403;28;1574;-69
2024/03/19 00:30:35;;;;;;;;;;;6.70;99.90;;;5.81;100.00;98091.88;4994384;28;1868;-69
2024/03/19 00:33:01;;;;;;;;;;;6.60;99.90;;;5.86;100.00;98084.94;4994040;28;1579;-69
2024/03/19 00:35:27;;;;;;;;;;;6.60;99.90;;;5.81;100.00;98089.31;4978510;28;1633;-69
2024/03/19 00:37:53;;;;;;;;;;;6.50;99.90;;;5.67;100.00;98088.66;4981596;28;1619;-69
2024/03/19 00:40:19;;;;;;;;;;;6.40;99.90;;;5.50;100.00;98083.78;4980838;28;1981;-69
2024/03/19 00:42:45;;;;;;;;;;;6.40;99.90;;;5.58;100.00;98084.50;4996773;28;1550;-69
2024/03/19 00:45:11;;;;;;;;;;;6.40;99.90;;;5.56;100.00;98078.50;4993090;28;2182;-69
2024/03/19 00:47:37;;;;;;;;;;;6.30;99.90;;;5.48;100.00;98084.69;4996117;28;1583;-68
2024/03/19 00:50:05;;;;;;;;;;;6.30;99.90;;;5.36;100.00;98083.09;4979068;28;1614;-69
2024/03/19 00:52:32;;;;;;;;;;;6.20;99.90;;;5.40;100.00;98090.75;4979031;28;1559;-69
2024/03/19 00:54:57;;;;;;;;;;;6.30;99.90;;;5.39;100.00;98086.50;4998528;28;1832;-69
2024/03/19 00:57:23;;;;;;;;;;;6.20;99.90;;;5.45;100.00;98090.69;4998690;28;1766;-68
2024/03/19 00:59:49;;;;;;;;;;;6.10;99.90;;;5.45;100.00;98086.41;4996700;28;1891;-69
2024/03/19 01:02:16;;;;;;;;;;;6.10;99.90;;;5.36;100.00;98080.53;4982185;28;1478;-69
2024/03/19 01:04:43;;;;;;;;;;;6.10;99.90;;;5.28;100.00;98082.38;4979217;28;2206;-69
2024/03/19 01:07:09;;;;;;;;;;;6.00;99.90;;;5.35;100.00;98081.41;4979497;28;1590;-69
2024/03/19 01:09:35;;;;;;;;;;;6.00;99.90;;;5.26;100.00;98074.66;4994878;28;2143;-69
2024/03/19 01:12:01;;;;;;;;;;;6.00;99.90;;;5.32;100.00;98078.88;4963421;28;1645;-69
2024/03/19 01:14:26;;;;;;;;;;;6.10;99.90;;;5.44;100.00;98083.84;4994890;28;1654;-68
2024/03/19 01:16:52;;;;;;;;;;;6.20;99.90;;;5.32;100.00;98084.03;4964004;28;1583;-69
2024/03/19 01:19:18;;;;;;;;;;;6.20;99.90;;;5.19;100.00;98079.03;4981628;28;1938;-69
2024/03/19 01:21:44;;;;;;;;;;;6.30;99.90;;;5.21;100.00;98077.28;5001863;28;1869;-69
2024/03/19 01:24:10;;;;;;;;;;;6.30;99.90;;;5.44;100.00;98065.84;4998551;28;1438;-69
2024/03/19 01:26:36;;;;;;;;;;;6.30;99.90;;;5.60;100.00;98069.03;4983372;28;1617;-68
2024/03/19 01:29:01;;;;;;;;;;;6.40;99.90;;;5.68;100.00;98069.78;4998057;28;1452;-69
2024/03/19 01:31:28;;;;;;;;;;;6.50;99.90;;;5.81;100.00;98070.44;4980490;28;1408;-69
2024/03/19 01:33:55;;;;;;;;;;;6.60;99.90;;;5.84;100.00;98067.81;4968079;28;1827;-69
2024/03/19 01:36:22;;;;;;;;;;;6.70;99.90;;;5.83;100.00;98056.66;4981532;28;1585;-69
2024/03/19 01:38:47;;;;;;;;;;;6.80;99.90;;;5.64;100.00;98056.09;4998327;28;2017;-69
2024/03/19 01:41:15;;;;;;;;;;;6.80;99.90;;;6.02;100.00;98053.78;4999557;28;1490;-69
2024/03/19 01:43:40;;;;;;;;;;;6.90;99.90;;;6.15;100.00;98057.03;4996900;28;1723;-69
2024/03/19 01:46:06;;;;;;;;;;;6.70;99.90;;;5.97;100.00;98058.19;4997702;28;1602;-70
2024/03/19 01:48:36;;;;;;;;;;;6.80;99.90;;;6.14;100.00;98048.44;4999877;28;1614;-69
2024/03/19 01:51:02;;;;;;;;;;;6.70;99.90;;;6.08;100.00;98043.41;4982341;28;1734;-69
2024/03/19 01:53:29;;;;;;;;;;;6.80;99.90;;;6.11;100.00;98045.06;4984802;28;1622;-68
2024/03/19 01:55:56;;;;;;;;;;;6.80;99.90;;;6.16;100.00;98036.38;4967253;28;1542;-69
2024/03/19 01:58:22;;;;;;;;;;;6.90;99.90;;;6.28;100.00;98033.59;4966286;28;1525;-69
2024/03/19 02:00:49;;;;;;;;;;;6.90;99.90;;;6.32;100.00;98034.38;4982131;28;1911;-69
2024/03/19 02:03:16;;;;;;;;;;;6.90;99.90;;;6.20;100.00;98035.47;4980838;28;1578;-68
2024/03/19 02:05:51;;;;;;;;;;;6.90;99.90;;;5.95;100.00;98029.00;4965856;28;1371;-69
2024/03/19 02:08:17;;;;;;;;;;;6.80;99.90;;;5.79;100.00;98026.69;4999206;28;1594;-69
2024/03/19 02:10:43;;;;;;;;;;;6.80;99.90;;;6.05;100.00;98030.56;4965290;28;1756;-69
2024/03/19 02:13:09;;;;;;;;;;;6.70;99.90;;;5.97;100.00;98032.41;4982113;28;1634;-69
2024/03/19 02:15:35;;;;;;;;;;;6.60;99.90;;;5.73;100.00;98020.78;4985643;28;1528;-69
2024/03/19 02:18:02;;;;;;;;;;;6.50;99.90;;;5.73;100.00;98023.34;4977610;28;1801;-69
2024/03/19 02:20:27;;;;;;;;;;;6.60;99.90;;;5.89;100.00;98024.78;4979618;28;1981;-69
2024/03/19 02:22:53;;;;;;;;;;;6.60;99.90;;;5.89;100.00;98023.94;4983635;28;1464;-69
2024/03/19 02:25:19;;;;;;;;;;;6.60;99.90;;;6.06;100.00;98025.38;4995091;28;1636;-69
2024/03/19 02:27:46;;;;;;;;;;;6.60;99.90;;;6.02;100.00;98026.31;4982101;28;1642;-69
2024/03/19 02:30:13;;;;;;;;;;;6.60;99.90;;;6.11;100.00;98022.72;4979987;28;1870;-69
2024/03/19 02:32:39;;;;;;;;;;;6.70;99.90;;;6.26;100.00;98021.59;4997018;28;1517;-69
2024/03/19 02:35:06;;;;;;;;;;;6.80;99.90;;;6.28;100.00;98017.28;4979711;28;1592;-69
2024/03/19 02:37:32;;;;;;;;;;;6.80;99.90;;;6.39;100.00;98019.66;4998412;28;1776;-69
2024/03/19 02:40:00;;;;;;;;;;;6.90;99.90;;;6.33;100.00;98018.03;4980406;28;1919;-69
2024/03/19 02:42:26;;;;;;;;;;;6.90;99.90;;;6.55;100.00;98012.47;4981605;28;1571;-69
2024/03/19 02:44:52;;;;;;;;;;;6.90;99.90;;;6.45;100.00;98009.22;4978398;28;1454;-69
2024/03/19 02:47:18;;;;;;;;;;;7.00;99.90;;;6.46;100.00;98010.94;4995495;28;1443;-69
2024/03/19 02:49:44;;;;;;;;;;;7.10;99.90;;;6.55;100.00;98005.59;4981650;28;1587;-69
2024/03/19 02:52:10;;;;;;;;;;;7.10;99.90;;;6.67;100.00;98007.06;4998683;28;1613;-69
2024/03/19 02:54:40;;;;;;;;;;;7.20;99.90;;;6.75;100.00;98015.50;4980469;28;1618;-69
2024/03/19 02:57:06;;;;;;;;;;;7.30;99.90;;;6.90;100.00;98016.91;4995411;28;1474;-69
2024/03/19 02:59:31;;;;;;;;;;;7.40;99.90;;;6.94;100.00;98015.13;4979724;28;1918;-69
2024/03/19 03:01:58;;;;;;;;;;;7.60;99.90;;;6.82;100.00;98014.50;4999862;28;2324;-69
2024/03/19 03:04:24;;;;;;;;;;;7.70;99.90;;;7.02;100.00;98016.66;4981186;28;1485;-69
2024/03/19 03:06:51;;;;;;;;;;;7.80;99.90;;;7.13;100.00;98019.00;4985900;28;1634;-69
2024/03/19 03:09:17;;;;;;;;;;;7.90;99.90;;;7.11;100.00;98019.03;4997673;28;1844;-69
2024/03/19 03:11:44;;;;;;;;;;;7.90;99.90;;;7.20;100.00;98019.72;4979665;28;1765;-69
2024/03/19 03:14:10;;;;;;;;;;;7.90;99.90;;;7.16;100.00;98021.53;4996121;28;1691;-69
2024/03/19 03:16:36;;;;;;;;;;;8.00;99.90;;;7.33;100.00;98022.00;4984938;28;1447;-69
2024/03/19 03:19:02;;;;;;;;;;;8.10;99.90;;;7.40;100.00;98017.53;4997170;28;1997;-69
2024/03/19 03:21:28;;;;;;;;;;;8.10;99.90;;;7.48;100.00;98007.91;4994807;28;1870;-69
2024/03/19 03:23:54;;;;;;;;;;;8.20;99.90;;;7.49;100.00;98011.31;4995268;28;1668;-69
2024/03/19 03:26:20;;;;;;;;;;;8.30;99.90;;;7.38;100.00;98008.97;4996417;28;1824;-69
2024/03/19 03:28:46;;;;;;;;;;;8.30;99.90;;;7.68;100.00;98004.81;4982486;28;1614;-69
2024/03/19 03:31:12;;;;;;;;;;;8.20;99.90;;;7.74;100.00;98002.09;4979713;28;1845;-69
2024/03/19 03:33:37;;;;;;;;;;;8.20;99.90;;;7.67;100.00;98000.56;4964906;28;1658;-69
2024/03/19 03:36:04;;;;;;;;;;;8.20;99.90;;;7.44;100.00;97998.53;4998165;28;1498;-69
2024/03/19 03:38:29;;;;;;;;;;;8.10;99.90;;;7.48;100.00;97996.69;4996756;28;1733;-69
2024/03/19 03:40:55;;;;;;;;;;;8.00;99.90;;;7.13;100.00;97996.63;4981627;28;1914;-69
2024/03/19 03:43:21;;;;;;;;;;;7.90;99.90;;;6.91;100.00;97993.66;4964230;28;1635;-69
2024/03/19 03:45:50;;;;;;;;;;;7.80;99.90;;;6.90;100.00;97997.13;4997755;28;1549;-69
2024/03/19 03:48:16;;;;;;;;;;;7.80;99.90;;;6.60;100.00;97990.03;4979665;28;1782;-69
2024/03/19 03:50:42;;;;;;;;;;;7.70;99.90;;;6.57;100.00;97990.94;4981828;28;1625;-69
2024/03/19 03:53:11;;;;;;;;;;;7.60;99.90;;;6.68;100.00;98006.19;4981318;28;1606;-69
2024/03/19 03:55:37;;;;;;;;;;;7.50;99.90;;;6.58;100.00;98012.41;4995476;28;1632;-69
2024/03/19 03:58:03;;;;;;;;;;;7.40;99.90;;;6.66;100.00;98008.81;4981397;28;1587;-69
2024/03/19 04:00:33;;;;;;;;;;;7.30;99.90;;;6.43;100.00;98018.69;4982915;28;1902;-69
2024/03/19 04:02:59;;;;;;;;;;;7.30;99.90;;;6.57;100.00;98015.84;4978996;28;1483;-69
2024/03/19 04:05:25;;;;;;;;;;;7.30;99.90;;;6.55;100.00;98018.47;4981625;28;1642;-69
2024/03/19 04:07:51;;;;;;;;;;;7.30;99.90;;;6.67;100.00;98020.81;4982066;28;1557;-69
2024/03/19 04:10:17;;;;;;;;;;;7.40;99.90;;;6.79;100.00;98024.88;4982439;28;1707;-69
2024/03/19 04:12:43;;;;;;;;;;;7.50;99.90;;;6.83;100.00;98021.34;4997294;28;1853;-69
2024/03/19 04:15:11;;;;;;;;;;;7.60;99.90;;;6.84;100.00;98028.22;4981985;28;1520;-69
2024/03/19 04:17:40;;;;;;;;;;;7.60;99.90;;;7.00;100.00;98031.34;4995075;28;1435;-69
2024/03/19 04:20:10;;;;;;;;;;;7.60;99.90;;;7.06;100.00;98030.34;4979452;28;1974;-69
2024/03/19 04:22:39;;;;;;;;;;;7.70;99.90;;;7.20;100.00;98033.47;4977139;28;1810;-69
2024/03/19 04:25:06;;;;;;;;;;;7.80;99.90;;;7.10;100.00;98032.00;4982954;28;2213;-69
2024/03/19 04:27:32;;;;;;;;;;;7.80;99.90;;;7.23;100.00;98037.72;4993453;28;1587;-69
2024/03/19 04:29:58;;;;;;;;;;;7.80;99.90;;;7.26;100.00;98042.84;4996458;28;1511;-69
2024/03/19 04:32:24;;;;;;;;;;;7.70;99.90;;;7.28;100.00;98033.31;4965982;28;1528;-69
2024/03/19 04:34:49;;;;;;;;;;;7.60;99.90;;;7.04;100.00;98029.53;4997523;28;1699;-69
2024/03/19 04:37:16;;;;;;;;;;;7.70;99.90;;;6.91;100.00;98028.94;4980693;28;1548;-69
2024/03/19 04:39:41;;;;;;;;;;;7.70;99.90;;;7.05;100.00;98041.56;4978008;28;1919;-69
2024/03/19 04:42:14;;;;;;;;;;;7.80;99.90;;;7.18;100.00;98040.41;4978333;28;1467;-69
2024/03/19 04:44:40;;;;;;;;;;;7.70;99.90;;;7.12;100.00;98038.81;4975061;28;1503;-69
2024/03/19 04:47:06;;;;;;;;;;;7.70;99.90;;;7.02;100.00;98039.03;4977229;28;1447;-69
2024/03/19 04:49:31;;;;;;;;;;;7.70;99.90;;;6.96;100.00;98041.75;4995207;28;1705;-69
2024/03/19 04:51:57;;;;;;;;;;;7.60;99.90;;;6.81;100.00;98040.34;4984081;28;1548;-69
2024/03/19 04:54:23;;;;;;;;;;;7.60;99.90;;;6.92;100.00;98040.97;4993938;28;1626;-69
2024/03/19 04:56:50;;;;;;;;;;;7.50;99.90;;;6.93;100.00;98037.50;4980086;28;1310;-69
2024/03/19 04:59:16;;;;;;;;;;;7.50;99.90;;;6.75;100.00;98046.47;4983228;28;2022;-69
2024/03/19 05:01:42;;;;;;;;;;;7.50;99.90;;;6.84;100.00;98033.38;4962305;28;1635;-69
2024/03/19 05:04:08;;;;;;;;;;;7.40;99.90;;;6.79;100.00;98040.34;4993863;28;1602;-69
2024/03/19 05:06:34;;;;;;;;;;;7.40;99.90;;;6.81;100.00;98030.84;4997441;28;1822;-69
2024/03/19 05:09:00;;;;;;;;;;;7.40;99.90;;;6.62;100.00;98035.53;4982325;28;1388;-69
2024/03/19 05:11:25;;;;;;;;;;;7.40;99.90;;;6.64;100.00;98033.78;4978824;28;1793;-69
2024/03/19 05:13:51;;;;;;;;;;;7.40;99.90;;;6.48;100.00;98032.38;4995701;28;1614;-69
2024/03/19 05:16:17;;;;;;;;;;;7.30;99.90;;;6.51;100.00;98031.47;4977948;28;1722;-69
2024/03/19 05:18:45;;;;;;;;;;;7.20;99.90;;;6.30;100.00;98041.31;4996376;28;1981;-69
2024/03/19 05:21:11;;;;;;;;;;;7.10;99.90;;;6.27;100.00;98043.91;4997170;28;1450;-69
2024/03/19 05:23:37;;;;;;;;;;;6.90;99.90;;;6.10;100.00;98044.22;4963231;28;1790;-69
2024/03/19 05:26:04;;;;;;;;;;;6.90;99.90;;;6.12;100.00;98034.75;4982627;28;1523;-69
2024/03/19 05:28:30;;;;;;;;;;;6.90;99.90;;;6.12;100.00;98044.22;4965385;28;1598;-69
2024/03/19 05:30:56;;;;;;;;;;;7.00;99.90;;;6.16;100.00;98036.38;4980547;28;1589;-69
2024/03/19 05:33:22;;;;;;;;;;;7.00;99.90;;;6.28;100.00;98040.47;4980026;28;1618;-69
2024/03/19 05:35:48;;;;;;;;;;;7.10;99.90;;;6.33;100.00;98045.53;4997583;28;1715;-69
2024/03/19 05:38:14;;;;;;;;;;;7.20;99.90;;;6.40;100.00;98053.13;4998086;28;1591;-69
2024/03/19 05:40:39;;;;;;;;;;;7.20;99.90;;;6.52;100.00;98057.22;4996005;28;1906;-69
2024/03/19 05:43:06;;;;;;;;;;;7.30;99.90;;;6.65;100.00;98052.69;4975690;28;1566;-69
2024/03/19 05:45:35;;;;;;;;;;;7.40;99.90;;;6.81;100.00;98048.06;4981579;28;1741;-69
2024/03/19 05:48:04;;;;;;;;;;;7.50;99.90;;;6.77;100.00;98042.09;4978634;28;1614;-69
2024/03/19 05:50:30;;;;;;;;;;;7.50;99.90;;;6.65;100.00;98048.38;4981851;28;1510;-69
2024/03/19 05:52:56;;;;;;;;;;;7.60;99.90;;;6.60;100.00;98050.19;4963165;28;1514;-69
2024/03/19 05:55:22;;;;;;;;;;;7.40;99.90;;;6.69;100.00;98050.00;4982167;28;1604;-69
2024/03/19 05:57:48;;;;;;;;;;;7.40;99.90;;;6.76;100.00;98049.91;4979859;28;1641;-69
2024/03/19 06:00:15;;;;;;;;;;;7.50;99.90;;;6.90;100.00;98051.31;4983097;28;1981;-69
2024/03/19 06:02:41;;;;;;;;;;;7.50;99.90;;;6.91;100.00;98044.41;4996458;28;1847;-69
2024/03/19 06:05:08;;;;;;;;;;;7.60;99.90;;;6.86;100.00;98052.25;4980539;28;1384;-69
2024/03/19 06:07:34;;;;;;;;;;;7.60;99.90;;;6.92;100.00;98046.13;4981041;28;1606;-69
2024/03/19 06:09:59;;;;;;;;;;;7.70;99.90;;;7.12;100.00;98053.47;4982671;28;1915;-69
2024/03/19 06:12:26;;;;;;;;;;;7.80;99.90;;;7.25;100.00;98056.63;5002140;28;1355;-69
2024/03/19 06:14:51;;;;;;;;;;;7.90;99.90;;;7.37;100.00;98043.44;4998573;28;1561;-69
2024/03/19 06:17:17;;;;;;;;;;;8.00;99.90;;;7.43;100.00;98050.19;4979415;28;1440;-69
2024/03/19 06:19:43;;;;;;;;;;;8.00;99.90;;;7.19;100.00;98043.84;4980081;28;1968;-69
2024/03/19 06:22:09;;;;;;;;;;;8.00;99.90;;;7.00;100.00;98046.81;4997113;28;1494;-69
2024/03/19 06:24:34;;;;;;;;;;;7.80;99.90;;;6.85;100.00;98047.13;4982468;28;1383;-69
2024/03/19 06:27:00;;;;;;;;;;;7.70;99.90;;;7.10;100.00;98055.22;4996819;28;1575;-69
2024/03/19 06:29:26;;;;;;;;;;;7.80;99.90;;;7.08;100.00;98052.66;4967298;28;1266;-69
2024/03/19 06:31:52;;;;;;;;;;;7.80;99.90;;;7.30;100.00;98055.66;4982257;28;1450;-69
2024/03/19 06:34:18;;;;;;;;;;;8.00;99.90;;;7.35;100.00;98060.72;4979921;28;1750;-69
2024/03/19 06:36:44;;;;;;;;;;;8.00;99.90;;;7.24;100.00;98060.94;4997188;28;1512;-69
2024/03/19 06:39:15;;;;;;;;;;;8.10;99.90;;;7.18;100.00;98063.63;4961210;28;1894;-69
2024/03/19 06:41:41;;;;;;;;;;;8.10;99.90;;;7.33;100.00;98070.22;4977201;28;1491;-69
2024/03/19 06:44:07;;;;;;;;;;;8.10;99.90;;;7.69;100.00;98065.97;4980608;28;1658;-69
2024/03/19 06:46:33;;;;;;;;;;;8.20;99.90;;;7.86;100.00;98064.72;4980913;28;2382;-69
2024/03/19 06:48:59;;;;;;;;;;;8.30;99.90;;;8.02;100.00;98063.44;4979999;28;1671;-69
2024/03/19 06:51:26;;;;;;;;;;;8.40;99.90;;;8.18;100.00;98069.94;4994446;28;1530;-69
2024/03/19 06:53:52;;;;;;;;;;;8.60;99.90;;;8.18;100.00;98072.53;4997827;28;1404;-69
2024/03/19 06:56:17;;;;;;;;;;;8.70;99.90;;;8.05;100.00;98075.44;4981220;28;1694;-69
2024/03/19 06:58:44;;;;;;;;;;;8.60;99.90;;;8.02;100.00;98076.38;4995678;28;1590;-69
2024/03/19 07:01:10;;;;;;;;;;;8.30;99.90;;;7.51;100.00;98081.88;4994449;28;1914;-69
2024/03/19 07:03:36;;;;;;;;;;;8.10;99.90;;;7.50;100.00;98082.75;4995337;28;1401;-69
2024/03/19 07:06:02;;;;;;;;;;;8.00;99.90;;;7.82;100.00;98079.44;4994871;28;1709;-69
2024/03/19 07:08:29;;;;;;;;;;;8.10;99.90;;;8.05;100.00;98084.06;4997416;28;1570;-69
2024/03/19 07:10:57;;;;;;;;;;;8.40;99.90;;;8.02;100.00;98088.47;4979413;28;1782;-69
2024/03/19 07:13:23;;;;;;;;;;;8.60;99.90;;;8.33;100.00;98079.06;4996244;28;1602;-69
2024/03/19 07:15:49;;;;;;;;;;;8.80;99.90;;;8.48;100.00;98083.00;4998035;28;1622;-69
2024/03/19 07:18:15;;;;;;;;;;;8.90;99.90;;;8.69;100.00;98080.72;4995752;28;1845;-69
2024/03/19 07:20:42;;;;;;;;;;;9.00;99.90;;;8.91;100.00;98083.59;4993811;28;1962;-69
2024/03/19 07:23:08;;;;;;;;;;;9.20;99.90;;;8.72;100.00;98084.09;4994714;28;1398;-69
2024/03/19 07:25:34;;;;;;;;;;;9.30;99.90;;;9.13;100.00;98079.50;4995767;28;1614;-69
2024/03/19 07:28:01;;;;;;;;;;;9.40;99.90;;;8.93;100.00;98074.06;4997722;28;1617;-69
2024/03/19 07:30:26;;;;;;;;;;;9.50;99.90;;;9.07;100.00;98071.06;4997674;28;1582;-69
2024/03/19 07:32:55;;;;;;;;;;;9.50;99.90;;;9.17;100.00;98064.75;4983136;28;1654;-69
2024/03/19 07:35:22;;;;;;;;;;;9.60;99.90;;;9.34;100.00;98066.84;4978585;28;1416;-69
2024/03/19 07:37:49;;;;;;;;;;;9.70;99.90;;;9.29;100.00;98063.53;4997639;28;1434;-69
2024/03/19 07:40:20;;;;;;;;;;;9.80;99.90;;;9.30;100.00;98063.47;4997651;28;1898;-69
2024/03/19 07:42:50;;;;;;;;;;;9.80;99.90;;;9.23;100.00;98059.38;4980019;28;1538;-69
2024/03/19 07:45:16;;;;;;;;;;;9.90;99.90;;;9.44;100.00;98063.06;4983314;28;1514;-69
2024/03/19 07:47:42;;;;;;;;;;;9.90;99.90;;;9.67;100.00;98058.91;4999569;28;1599;-69
2024/03/19 07:50:10;;;;;;;;;;;9.90;99.90;;;9.63;100.00;98066.78;4982448;28;1439;-69
2024/03/19 07:52:39;;;;;;;;;;;10.00;99.90;;;9.81;100.00;98057.59;4982169;28;1626;-69
2024/03/19 07:55:05;;;;;;;;;;;10.20;99.90;;;9.71;100.00;98063.94;4998412;28;1552;-69
2024/03/19 07:57:32;;;;;;;;;;;10.20;99.90;;;9.59;100.00;98065.19;4983005;28;1442;-69
2024/03/19 08:00:05;;;;;;;;;;;10.20;99.90;;;9.58;100.00;98062.66;4994694;28;1967;-69
2024/03/19 08:02:32;;;;;;;;;;;10.10;99.90;;;9.71;100.00;98068.28;4983005;28;2479;-69
2024/03/19 08:04:57;;;;;;;;;;;10.10;99.90;;;9.69;100.00;98068.34;4965050;28;1879;-69
2024/03/19 08:07:23;;;;;;;;;;;10.10;99.90;;;9.41;100.00;98071.78;4979716;28;1428;-69
2024/03/19 08:09:49;;;;;;;;;;;10.20;99.90;;;9.70;100.00;98072.63;4999822;28;1610;-69
2024/03/19 08:12:15;;;;;;;;;;;10.40;99.90;;;10.29;100.00;98076.00;4982829;28;1555;-69
2024/03/19 08:14:42;;;;;;;;;;;10.70;99.90;;;10.56;100.00;98069.84;4981538;28;1443;-69
2024/03/19 08:17:08;;;;;;;;;;;10.90;99.90;;;10.61;100.00;98067.09;4980748;28;1502;-69
2024/03/19 08:19:34;;;;;;;;;;;10.90;99.90;;;10.40;100.00;98061.75;4980128;28;2001;-69
2024/03/19 08:22:00;;;;;;;;;;;10.90;99.90;;;10.72;100.00;98061.50;4983206;28;1447;-69
2024/03/19 08:24:26;;;;;;;;;;;10.90;99.90;;;10.66;100.00;98058.22;4993152;28;1412;-69
2024/03/19 08:26:52;;;;;;;;;;;11.00;99.90;;;10.93;100.00;98058.16;4979017;28;5189;-69
2024/03/19 08:29:18;;;;;;;;;;;11.20;99.90;;;10.83;100.00;98057.66;4997365;28;1592;-69
2024/03/19 08:31:44;;;;;;;;;;;11.40;99.90;;;11.08;100.00;98056.72;4995686;28;1451;-69
2024/03/19 08:34:09;;;;;;;;;;;11.50;99.90;;;10.52;100.00;98068.25;4996387;28;1609;-69
2024/03/19 08:36:35;;;;;;;;;;;11.60;99.90;;;10.79;100.00;98066.44;4980192;28;1326;-69
2024/03/19 08:39:01;;;;;;;;;;;11.70;99.90;;;10.36;100.00;98067.94;4978230;28;1982;-70
2024/03/19 08:41:28;;;;;;;;;;;11.60;99.90;;;11.10;100.00;98076.56;4992489;28;2209;-69
2024/03/19 08:43:56;;;;;;;;;;;11.70;99.90;;;10.93;100.00;98073.75;4977533;28;2344;-69
2024/03/19 08:46:22;;;;;;;;;;;11.70;99.90;;;11.12;100.00;98078.28;4993887;28;1495;-69
2024/03/19 08:48:48;;;;;;;;;;;11.80;99.90;;;10.70;100.00;98084.94;4995376;28;1579;-69
2024/03/19 08:51:14;;;;;;;;;;;11.80;99.90;;;11.18;100.00;98081.50;4975998;28;1475;-69
2024/03/19 08:53:42;;;;;;;;;;;11.60;99.90;;;11.79;100.00;98080.91;4993657;28;2210;-69
2024/03/19 08:56:08;;;;;;;;;;;12.10;99.90;;;12.25;100.00;98081.69;4984325;28;2322;-69
2024/03/19 08:58:34;;;;;;;;;;;12.40;99.90;;;12.37;100.00;98069.06;4979786;28;2270;-69
2024/03/19 09:01:00;;;;;;;;;;;12.60;99.90;;;11.91;100.00;98059.63;4980659;28;1903;-69
2024/03/19 09:03:26;;;;;;;;;;;12.70;99.90;;;11.39;100.00;98064.25;4981505;28;1739;-70
2024/03/19 09:06:00;;;;;;;;;;;12.50;99.90;;;11.56;100.00;98071.38;4981786;28;1622;-69
2024/03/19 09:08:26;;;;;;;;;;;12.30;99.90;;;11.22;100.00;98069.22;4994918;28;1468;-69
2024/03/19 09:10:53;;;;;;;;;;;12.10;99.90;;;11.35;100.00;98067.84;4981824;28;1416;-69
2024/03/19 09:13:19;;;;;;;;;;;12.00;99.90;;;12.18;100.00;98068.97;4978727;28;1589;-69
2024/03/19 09:15:48;;;;;;;;;;;12.30;99.90;;;12.25;100.00;98060.03;4994035;28;1556;-69
2024/03/19 09:18:15;;;;;;;;;;;12.70;99.90;;;13.39;100.00;98059.34;4993072;28;1727;-69
2024/03/19 09:20:41;;;;;;;;;;;13.50;99.90;;;14.34;100.00;98047.84;4993587;28;1985;-70
2024/03/19 09:23:08;;;;;;;;;;;14.60;99.90;;;14.21;100.00;98035.41;4997473;28;3517;-69
2024/03/19 09:25:34;;;;;;;;;;;15.40;99.90;;;14.13;100.00;98028.88;4979283;28;1766;-70
2024/03/19 09:28:00;;;;;;;;;;;15.40;99.90;;;15.33;100.00;98015.69;4980307;28;1479;-70
2024/03/19 09:30:26;;;;;;;;;;;16.10;99.90;;;15.50;100.00;98006.88;4995966;28;1400;-70
2024/03/19 09:32:53;;;;;;;;;;;16.40;99.90;;;15.28;100.00;97999.41;4964983;28;1715;-70
2024/03/19 09:35:19;;;;;;;;;;;16.40;99.90;;;14.57;100.00;97994.47;4994131;28;1580;-70
2024/03/19 09:37:46;;;;;;;;;;;16.20;99.90;;;15.86;100.00;97995.31;4978276;28;2003;-70
2024/03/19 09:40:14;;;;;;;;;;;16.40;99.90;;;16.73;100.00;97984.88;4978846;28;1902;-70
2024/03/19 09:42:41;;;;;;;;;;;16.80;99.90;;;16.00;100.00;97984.03;4998200;28;1602;-70
2024/03/19 09:45:20;;;;;;;;;;;17.30;99.90;;;15.46;100.00;97995.75;4982659;28;1709;-70
2024/03/19 09:47:46;;;;;;;;;;;16.90;99.90;;;15.25;100.00;97995.16;4965287;28;1614;-70
2024/03/19 09:50:15;;;;;;;;;;;16.40;99.90;;;14.41;100.00;98010.91;4997112;28;1820;-70
2024/03/19 09:52:41;;;;;;;;;;;15.70;99.90;;;14.64;100.00;98011.50;4975246;28;2032;-70
2024/03/19 09:55:14;;;;;;;;;;;15.70;99.90;;;13.90;100.00;98027.41;4984239;28;1516;-70
2024/03/19 09:57:43;;;;;;;;;;;15.40;99.90;;;13.88;100.00;98029.25;4995733;28;1440;-69
2024/03/19 10:00:17;;;;;;;;;;;15.60;99.90;;;14.17;100.00;98027.81;4999349;28;1898;-70
2024/03/19 10:02:43;;;;;;;;;;;15.60;99.90;;;13.64;100.00;98024.31;4984305;28;1559;-69
2024/03/19 10:05:12;;;;;;;;;;;15.50;99.90;;;13.43;100.00;98026.16;4965965;28;3152;-69
2024/03/19 10:07:38;;;;;;;;;;;15.30;99.90;;;13.71;100.00;98033.53;4983288;28;1828;-69
2024/03/19 10:10:06;;;;;;;;;;;15.40;99.90;;;13.73;100.00;98030.81;4998608;28;1618;-70
2024/03/19 10:12:32;;;;;;;;;;;15.50;99.90;;;14.16;100.00;98032.19;4979230;28;1290;-70
2024/03/19 10:15:05;;;;;;;;;;;15.50;99.90;;;14.41;100.00;98023.09;4983878;28;1502;-70
2024/03/19 10:17:31;;;;;;;;;;;15.80;99.90;;;14.49;100.00;98025.34;4977567;28;1514;-69
2024/03/19 10:19:58;;;;;;;;;;;15.80;99.90;;;14.35;100.00;98031.28;4997027;28;1910;-69
2024/03/19 10:22:26;;;;;;;;;;;15.80;99.90;;;14.39;100.00;98030.16;4998576;28;1645;-70
2024/03/19 10:24:52;;;;;;;;;;;15.70;99.90;;;14.75;100.00;98022.25;4999350;28;1606;-70
2024/03/19 10:27:18;;;;;;;;;;;15.80;99.90;;;14.70;100.00;98016.41;4979047;28;1818;-69
2024/03/19 10:29:47;;;;;;;;;;;15.80;99.90;;;14.49;100.00;98025.34;4996798;28;1510;-69
2024/03/19 10:32:13;;;;;;;;;;;15.90;99.90;;;14.55;100.00;98022.44;4977410;28;1836;-69
2024/03/19 10:34:42;;;;;;;;;;;15.70;99.90;;;14.37;100.00;98024.22;4982921;28;2056;-69
2024/03/19 10:37:09;;;;;;;;;;;15.70;99.90;;;14.74;100.00;98009.28;5000113;28;1939;-70
2024/03/19 10:39:35;;;;;;;;;;;15.70;99.90;;;14.88;100.00;98013.78;4980257;28;1902;-70
2024/03/19 10:42:03;;;;;;;;;;;15.60;99.90;;;14.26;100.00;98023.91;4981084;28;1743;-69
2024/03/19 10:44:35;;;;;;;;;;;15.60;99.90;;;14.15;100.00;98025.28;4997224;28;1398;-70
2024/03/19 10:47:01;;;;;;;;;;;15.50;99.90;;;14.35;100.00;98021.66;4979595;28;1499;-70
2024/03/19 10:49:27;;;;;;;;;;;15.40;99.90;;;14.35;100.00;98013.00;4983397;28;3989;-69
2024/03/19 10:51:55;;;;;;;;;;;15.30;99.90;;;14.43;100.00;98010.81;4978032;28;1863;-69
2024/03/19 10:54:23;;;;;;;;;;;15.20;99.90;;;14.69;100.00;98000.81;4981289;28;2271;-69
2024/03/19 10:56:49;;;;;;;;;;;15.40;99.90;;;15.16;100.00;98000.88;4986260;28;2282;-69
2024/03/19 10:59:15;;;;;;;;;;;15.50;99.90;;;15.15;100.00;97999.22;4983444;28;1903;-69
2024/03/19 11:01:46;;;;;;;;;;;15.60;99.90;;;14.97;100.00;97998.44;4978884;28;1622;-69
2024/03/19 11:04:15;;;;;;;;;;;15.60;99.90;;;15.32;100.00;97994.84;4992642;28;1833;-70
2024/03/19 11:06:41;;;;;;;;;;;15.80;99.90;;;15.40;100.00;97990.88;4999738;28;1724;-70
2024/03/19 11:09:21;;;;;;;;;;;15.80;99.90;;;15.09;100.00;97989.09;4980983;28;1853;-69
2024/03/19 11:11:51;;;;;;;;;;;16.00;99.90;;;15.20;100.00;97991.97;4997228;28;2042;-70
2024/03/19 11:14:18;;;;;;;;;;;16.00;99.90;;;15.39;100.00;97988.31;4966994;28;1383;-69
2024/03/19 11:16:45;;;;;;;;;;;15.80;99.90;;;15.51;100.00;97987.66;4994475;28;1742;-70
2024/03/19 11:19:20;;;;;;;;;;;15.80;99.90;;;16.04;100.00;97975.91;4980451;28;1942;-69
2024/03/19 11:21:51;;;;;;;;;;;15.90;99.90;;;15.69;100.00;97977.91;4996586;28;1392;-69
2024/03/19 11:24:22;;;;;;;;;;;16.00;99.90;;;15.27;100.00;97976.78;4980884;28;2166;-69
2024/03/19 11:26:51;;;;;;;;;;;16.10;99.90;;;15.84;100.00;97977.06;4966450;28;1981;-70